createdAt,value
2016-11-23T00:00:42.184Z,4.6
2016-11-23T00:01:43.648Z,4.76
2016-11-23T00:02:45.135Z,4.84
2016-11-23T00:03:46.635Z,4.97
2016-11-23T00:04:48.178Z,5.05
2016-11-23T00:05:49.648Z,5.05
2016-11-23T00:06:51.111Z,5.05
2016-11-23T00:07:52.616Z,4.97
2016-11-23T00:08:54.149Z,4.88
2016-11-23T00:09:55.626Z,4.84
2016-11-23T00:10:57.092Z,4.72
2016-11-23T00:11:58.566Z,4.64
2016-11-23T00:13:00.082Z,4.51
2016-11-23T00:14:01.576Z,4.51
2016-11-23T00:15:03.096Z,4.47
2016-11-23T00:16:04.562Z,4.43
2016-11-23T00:17:06.048Z,4.39
2016-11-23T00:18:07.512Z,4.35
2016-11-23T00:19:08.993Z,4.31
2016-11-23T00:20:10.463Z,4.27
2016-11-23T00:21:11.923Z,4.22
2016-11-23T00:22:13.407Z,4.18
2016-11-23T00:23:14.879Z,4.14
2016-11-23T00:24:16.370Z,4.18
2016-11-23T00:25:17.852Z,4.18
2016-11-23T00:26:19.372Z,4.22
2016-11-23T00:27:20.841Z,4.18
2016-11-23T00:28:22.306Z,4.1
2016-11-23T00:29:23.849Z,4.06
2016-11-23T00:30:25.310Z,4.02
2016-11-23T00:31:26.768Z,3.98
2016-11-23T00:32:28.277Z,3.89
2016-11-23T00:33:29.745Z,3.89
2016-11-23T00:34:31.228Z,3.81
2016-11-23T00:35:32.693Z,3.72
2016-11-23T00:36:34.185Z,3.72
2016-11-23T00:37:35.663Z,3.68
2016-11-23T00:38:37.180Z,3.64
2016-11-23T00:39:38.662Z,3.64
2016-11-23T00:40:40.134Z,3.68
2016-11-23T00:41:41.645Z,3.68
2016-11-23T00:42:43.178Z,3.68
2016-11-23T00:43:44.686Z,3.72
2016-11-23T00:44:46.165Z,3.77
2016-11-23T00:45:47.644Z,3.77
2016-11-23T00:46:49.104Z,3.81
2016-11-23T00:47:50.569Z,3.77
2016-11-23T00:48:52.053Z,3.72
2016-11-23T00:49:53.539Z,3.72
2016-11-23T00:50:55.018Z,3.64
2016-11-23T00:51:56.522Z,3.6
2016-11-23T00:52:58.058Z,3.6
2016-11-23T00:53:59.535Z,3.64
2016-11-23T00:55:00.999Z,3.77
2016-11-23T00:56:02.510Z,3.85
2016-11-23T00:57:03.986Z,3.89
2016-11-23T00:58:05.448Z,3.89
2016-11-23T00:59:06.920Z,3.89
2016-11-23T01:00:08.400Z,3.89
2016-11-23T01:01:09.862Z,3.89
2016-11-23T01:02:11.347Z,3.98
2016-11-23T01:03:12.856Z,4.1
2016-11-23T01:04:14.325Z,4.1
2016-11-23T01:05:15.806Z,4.06
2016-11-23T01:06:17.293Z,3.93
2016-11-23T01:07:18.754Z,3.93
2016-11-23T01:08:20.221Z,3.89
2016-11-23T01:09:21.705Z,3.89
2016-11-23T01:10:23.219Z,3.89
2016-11-23T01:11:24.686Z,3.85
2016-11-23T01:12:26.169Z,3.77
2016-11-23T01:13:27.633Z,3.77
2016-11-23T01:14:29.159Z,3.72
2016-11-23T01:15:30.642Z,3.72
2016-11-23T01:16:32.147Z,3.72
2016-11-23T01:17:33.646Z,3.77
2016-11-23T01:18:35.152Z,3.81
2016-11-23T01:19:36.611Z,3.85
2016-11-23T01:20:38.139Z,4.06
2016-11-23T01:21:39.663Z,4.14
2016-11-23T01:22:41.137Z,4.18
2016-11-23T01:23:42.610Z,4.22
2016-11-23T01:24:44.134Z,4.27
2016-11-23T01:25:45.628Z,4.27
2016-11-23T01:26:47.124Z,4.31
2016-11-23T01:27:48.595Z,4.35
2016-11-23T01:28:50.098Z,4.35
2016-11-23T01:29:51.583Z,4.39
2016-11-23T01:30:53.138Z,4.51
2016-11-23T01:31:54.592Z,4.6
2016-11-23T01:32:56.107Z,4.68
2016-11-23T01:33:57.595Z,4.68
2016-11-23T01:34:59.139Z,4.76
2016-11-23T01:36:00.630Z,4.84
2016-11-23T01:37:02.152Z,4.84
2016-11-23T01:38:03.626Z,4.76
2016-11-23T01:39:05.127Z,4.72
2016-11-23T01:40:06.576Z,4.6
2016-11-23T01:41:08.073Z,4.47
2016-11-23T01:42:09.595Z,4.39
2016-11-23T01:43:11.070Z,4.31
2016-11-23T01:44:12.584Z,4.22
2016-11-23T01:45:14.133Z,4.18
2016-11-23T01:46:15.625Z,4.14
2016-11-23T01:47:17.099Z,4.27
2016-11-23T01:48:18.572Z,4.35
2016-11-23T01:49:20.094Z,4.51
2016-11-23T01:50:21.547Z,4.6
2016-11-23T01:51:23.042Z,4.68
2016-11-23T01:52:24.498Z,4.8
2016-11-23T01:53:25.996Z,4.88
2016-11-23T01:54:27.465Z,4.88
2016-11-23T01:55:28.972Z,4.8
2016-11-23T01:56:30.460Z,4.68
2016-11-23T01:57:31.949Z,4.6
2016-11-23T01:58:33.478Z,4.56
2016-11-23T01:59:34.981Z,4.47
2016-11-23T02:00:36.505Z,4.51
2016-11-23T02:01:38.025Z,4.51
2016-11-23T02:02:39.526Z,4.56
2016-11-23T02:03:40.994Z,4.56
2016-11-23T02:04:42.463Z,4.56
2016-11-23T02:05:44.016Z,4.56
2016-11-23T02:06:45.477Z,4.6
2016-11-23T02:07:46.928Z,4.6
2016-11-23T02:08:48.457Z,4.56
2016-11-23T02:09:49.916Z,4.6
2016-11-23T02:10:51.385Z,4.56
2016-11-23T02:11:52.916Z,4.56
2016-11-23T02:12:54.434Z,4.6
2016-11-23T02:13:55.912Z,4.64
2016-11-23T02:14:57.387Z,4.68
2016-11-23T02:15:58.913Z,4.68
2016-11-23T02:17:00.455Z,4.68
2016-11-23T02:18:01.933Z,4.68
2016-11-23T02:19:03.397Z,4.68
2016-11-23T02:20:04.858Z,4.68
2016-11-23T02:21:06.335Z,4.68
2016-11-23T02:22:07.874Z,4.72
2016-11-23T02:23:09.345Z,4.72
2016-11-23T02:24:10.855Z,4.72
2016-11-23T02:25:12.356Z,4.68
2016-11-23T02:26:13.875Z,4.72
2016-11-23T02:27:15.358Z,4.72
2016-11-23T02:28:16.831Z,4.72
2016-11-23T02:29:18.340Z,4.76
2016-11-23T02:30:19.822Z,4.84
2016-11-23T02:31:21.290Z,4.88
2016-11-23T02:32:22.808Z,4.84
2016-11-23T02:33:24.284Z,4.84
2016-11-23T02:34:25.751Z,4.84
2016-11-23T02:35:27.209Z,4.8
2016-11-23T02:36:28.675Z,4.76
2016-11-23T02:37:30.161Z,4.8
2016-11-23T02:38:31.623Z,4.76
2016-11-23T02:39:33.131Z,4.76
2016-11-23T02:40:34.597Z,4.72
2016-11-23T02:41:36.118Z,4.76
2016-11-23T02:42:37.642Z,4.76
2016-11-23T02:43:39.102Z,4.8
2016-11-23T02:44:40.553Z,4.8
2016-11-23T02:45:42.055Z,4.76
2016-11-23T02:46:43.517Z,4.76
2016-11-23T02:47:44.992Z,4.76
2016-11-23T02:48:46.512Z,4.68
2016-11-23T02:49:47.988Z,4.64
2016-11-23T02:50:49.432Z,4.6
2016-11-23T02:51:50.878Z,4.6
2016-11-23T02:52:52.407Z,4.64
2016-11-23T02:53:53.917Z,4.64
2016-11-23T02:54:55.380Z,4.64
2016-11-23T02:55:56.847Z,4.68
2016-11-23T02:56:58.318Z,4.68
2016-11-23T02:57:59.822Z,4.64
2016-11-23T02:59:01.295Z,4.64
2016-11-23T03:00:02.759Z,4.64
2016-11-23T03:01:04.205Z,4.6
2016-11-23T03:02:05.686Z,4.6
2016-11-23T03:03:07.190Z,4.6
2016-11-23T03:04:08.696Z,4.6
2016-11-23T03:05:10.187Z,4.6
2016-11-23T03:06:11.664Z,4.64
2016-11-23T03:07:13.131Z,4.56
2016-11-23T03:08:14.635Z,4.56
2016-11-23T03:09:16.097Z,4.56
2016-11-23T03:10:17.598Z,4.56
2016-11-23T03:11:19.116Z,4.56
2016-11-23T03:12:20.578Z,4.56
2016-11-23T03:13:22.055Z,4.56
2016-11-23T03:14:23.528Z,4.51
2016-11-23T03:15:24.987Z,4.47
2016-11-23T03:16:26.449Z,4.51
2016-11-23T03:17:27.971Z,4.51
2016-11-23T03:18:29.510Z,4.47
2016-11-23T03:19:30.986Z,4.43
2016-11-23T03:20:32.489Z,4.43
2016-11-23T03:21:33.948Z,4.43
2016-11-23T03:22:35.411Z,4.39
2016-11-23T03:23:36.881Z,4.31
2016-11-23T03:24:38.348Z,4.22
2016-11-23T03:25:39.841Z,4.22
2016-11-23T03:26:41.310Z,4.18
2016-11-23T03:27:42.775Z,4.14
2016-11-23T03:28:44.254Z,4.14
2016-11-23T03:29:45.717Z,4.18
2016-11-23T03:30:47.190Z,4.18
2016-11-23T03:31:48.699Z,4.14
2016-11-23T03:32:50.174Z,4.06
2016-11-23T03:33:51.696Z,4.06
2016-11-23T03:34:53.159Z,4.02
2016-11-23T03:35:54.621Z,3.93
2016-11-23T03:36:56.111Z,3.89
2016-11-23T03:37:57.586Z,3.89
2016-11-23T03:38:59.082Z,3.93
2016-11-23T03:40:00.548Z,4.06
2016-11-23T03:41:02.066Z,4.18
2016-11-23T03:42:03.594Z,4.22
2016-11-23T03:43:05.059Z,4.22
2016-11-23T03:44:06.556Z,4.22
2016-11-23T03:45:08.026Z,4.22
2016-11-23T03:46:09.491Z,4.22
2016-11-23T03:47:11.013Z,4.18
2016-11-23T03:48:12.493Z,4.22
2016-11-23T03:49:13.976Z,4.18
2016-11-23T03:50:15.495Z,4.18
2016-11-23T03:51:16.956Z,4.14
2016-11-23T03:52:18.471Z,4.18
2016-11-23T03:53:19.942Z,4.18
2016-11-23T03:54:21.424Z,4.14
2016-11-23T03:55:22.895Z,4.22
2016-11-23T03:56:24.376Z,4.22
2016-11-23T03:57:25.876Z,4.14
2016-11-23T03:58:27.373Z,4.02
2016-11-23T03:59:28.847Z,3.89
2016-11-23T04:00:30.309Z,3.81
2016-11-23T04:01:31.829Z,3.72
2016-11-23T04:02:33.299Z,3.68
2016-11-23T04:03:34.813Z,3.64
2016-11-23T04:04:36.308Z,3.64
2016-11-23T04:05:37.810Z,3.6
2016-11-23T04:06:39.278Z,3.64
2016-11-23T04:07:40.747Z,3.64
2016-11-23T04:08:42.228Z,3.6
2016-11-23T04:09:43.746Z,3.56
2016-11-23T04:10:45.209Z,3.51
2016-11-23T04:11:46.725Z,3.47
2016-11-23T04:12:48.194Z,3.43
2016-11-23T04:13:49.656Z,3.43
2016-11-23T04:14:51.165Z,3.39
2016-11-23T04:15:52.631Z,3.39
2016-11-23T04:16:54.099Z,3.39
2016-11-23T04:17:55.562Z,3.39
2016-11-23T04:18:57.053Z,3.35
2016-11-23T04:19:58.520Z,3.3
2016-11-23T04:20:59.973Z,3.3
2016-11-23T04:22:01.445Z,3.26
2016-11-23T04:23:02.916Z,3.26
2016-11-23T04:24:04.370Z,3.3
2016-11-23T04:25:05.859Z,3.35
2016-11-23T04:26:07.348Z,3.35
2016-11-23T04:27:08.833Z,3.35
2016-11-23T04:28:10.326Z,3.3
2016-11-23T04:29:11.799Z,3.26
2016-11-23T04:30:13.322Z,3.22
2016-11-23T04:31:14.800Z,3.22
2016-11-23T04:32:16.292Z,3.22
2016-11-23T04:33:17.813Z,3.18
2016-11-23T04:34:19.292Z,3.09
2016-11-23T04:35:20.811Z,3.09
2016-11-23T04:36:22.326Z,3.05
2016-11-23T04:37:23.810Z,3.05
2016-11-23T04:38:25.280Z,3.05
2016-11-23T04:39:26.737Z,3.05
2016-11-23T04:40:28.303Z,3.09
2016-11-23T04:41:29.766Z,3.09
2016-11-23T04:42:31.255Z,3.05
2016-11-23T04:43:32.765Z,2.96
2016-11-23T04:44:34.274Z,2.96
2016-11-23T04:45:35.772Z,2.92
2016-11-23T04:46:37.252Z,2.88
2016-11-23T04:47:38.716Z,2.84
2016-11-23T04:48:40.235Z,2.84
2016-11-23T04:49:41.699Z,2.84
2016-11-23T04:50:43.228Z,2.84
2016-11-23T04:51:44.694Z,2.79
2016-11-23T04:52:46.160Z,2.75
2016-11-23T04:53:47.641Z,2.75
2016-11-23T04:54:49.152Z,2.75
2016-11-23T04:55:50.662Z,2.75
2016-11-23T04:56:52.159Z,2.75
2016-11-23T04:57:53.647Z,2.71
2016-11-23T04:58:55.135Z,2.71
2016-11-23T04:59:56.612Z,2.66
2016-11-23T05:00:58.095Z,2.66
2016-11-23T05:01:59.582Z,2.71
2016-11-23T05:03:01.103Z,2.71
2016-11-23T05:04:02.593Z,2.71
2016-11-23T05:05:04.110Z,2.71
2016-11-23T05:06:05.583Z,2.71
2016-11-23T05:07:07.080Z,2.75
2016-11-23T05:08:08.538Z,2.75
2016-11-23T05:09:10.043Z,2.79
2016-11-23T05:10:11.555Z,2.92
2016-11-23T05:11:13.104Z,2.92
2016-11-23T05:12:14.622Z,2.92
2016-11-23T05:13:16.085Z,2.84
2016-11-23T05:14:17.557Z,2.75
2016-11-23T05:15:19.026Z,2.71
2016-11-23T05:16:20.505Z,2.62
2016-11-23T05:17:22.033Z,2.58
2016-11-23T05:18:23.493Z,2.58
2016-11-23T05:19:24.956Z,2.58
2016-11-23T05:20:26.451Z,2.58
2016-11-23T05:21:27.986Z,2.62
2016-11-23T05:22:29.506Z,2.58
2016-11-23T05:23:31.026Z,2.54
2016-11-23T05:24:32.487Z,2.49
2016-11-23T05:25:33.951Z,2.49
2016-11-23T05:26:35.436Z,2.49
2016-11-23T05:27:36.939Z,2.49
2016-11-23T05:28:38.406Z,2.49
2016-11-23T05:29:39.878Z,2.45
2016-11-23T05:30:41.377Z,2.49
2016-11-23T05:31:42.865Z,2.49
2016-11-23T05:32:44.385Z,2.54
2016-11-23T05:33:45.855Z,2.54
2016-11-23T05:34:47.319Z,2.49
2016-11-23T05:35:48.796Z,2.54
2016-11-23T05:36:50.277Z,2.54
2016-11-23T05:37:51.794Z,2.54
2016-11-23T05:38:53.281Z,2.58
2016-11-23T05:39:54.745Z,2.62
2016-11-23T05:40:56.217Z,2.75
2016-11-23T05:41:57.701Z,2.84
2016-11-23T05:42:59.216Z,2.92
2016-11-23T05:44:00.717Z,2.96
2016-11-23T05:45:02.190Z,2.92
2016-11-23T05:46:03.696Z,2.88
2016-11-23T05:47:05.220Z,2.92
2016-11-23T05:48:06.771Z,2.92
2016-11-23T05:49:08.238Z,2.88
2016-11-23T05:50:09.709Z,2.84
2016-11-23T05:51:11.174Z,2.79
2016-11-23T05:52:12.678Z,2.79
2016-11-23T05:53:14.148Z,2.75
2016-11-23T05:54:15.613Z,2.71
2016-11-23T05:55:17.082Z,2.66
2016-11-23T05:56:18.550Z,2.58
2016-11-23T05:57:20.092Z,2.54
2016-11-23T05:58:21.591Z,2.54
2016-11-23T05:59:23.083Z,2.54
2016-11-23T06:00:24.549Z,2.54
2016-11-23T06:01:26.035Z,2.58
2016-11-23T06:02:27.530Z,2.62
2016-11-23T06:03:29.001Z,2.66
2016-11-23T06:04:30.458Z,2.66
2016-11-23T06:05:31.944Z,2.75
2016-11-23T06:06:33.416Z,2.79
2016-11-23T06:07:34.920Z,2.88
2016-11-23T06:08:36.384Z,2.92
2016-11-23T06:09:37.883Z,2.92
2016-11-23T06:10:39.402Z,2.96
2016-11-23T06:11:40.889Z,3.01
2016-11-23T06:12:42.379Z,3.01
2016-11-23T06:13:43.845Z,3.09
2016-11-23T06:14:45.311Z,3.18
2016-11-23T06:15:46.818Z,3.22
2016-11-23T06:16:48.283Z,3.26
2016-11-23T06:17:49.737Z,3.3
2016-11-23T06:18:51.191Z,3.3
2016-11-23T06:19:52.645Z,3.3
2016-11-23T06:20:54.089Z,3.3
2016-11-23T06:21:55.593Z,3.35
2016-11-23T06:22:57.092Z,3.43
2016-11-23T06:23:58.557Z,3.47
2016-11-23T06:25:00.027Z,3.43
2016-11-23T06:26:01.553Z,3.39
2016-11-23T06:27:03.024Z,3.35
2016-11-23T06:28:04.521Z,3.39
2016-11-23T06:29:06.001Z,3.39
2016-11-23T06:30:07.472Z,3.39
2016-11-23T06:31:08.938Z,3.35
2016-11-23T06:32:10.404Z,3.35
2016-11-23T06:33:11.874Z,3.3
2016-11-23T06:34:13.322Z,3.3
2016-11-23T06:35:14.828Z,3.26
2016-11-23T06:36:16.323Z,3.3
2016-11-23T06:37:17.849Z,3.3
2016-11-23T06:38:19.359Z,3.35
2016-11-23T06:39:20.880Z,3.43
2016-11-23T06:40:22.343Z,3.51
2016-11-23T06:41:23.859Z,3.56
2016-11-23T06:42:25.373Z,3.72
2016-11-23T06:43:26.861Z,3.81
2016-11-23T06:44:28.325Z,3.85
2016-11-23T06:45:29.785Z,3.81
2016-11-23T06:46:31.287Z,3.85
2016-11-23T06:47:32.806Z,3.81
2016-11-23T06:48:34.304Z,3.85
2016-11-23T06:49:35.819Z,3.85
2016-11-23T06:50:37.285Z,3.85
2016-11-23T06:51:38.748Z,3.89
2016-11-23T06:52:40.208Z,3.98
2016-11-23T06:53:41.757Z,4.02
2016-11-23T06:54:43.218Z,3.98
2016-11-23T06:55:44.732Z,3.93
2016-11-23T06:56:46.203Z,3.89
2016-11-23T06:57:47.677Z,3.85
2016-11-23T06:58:49.144Z,3.85
2016-11-23T06:59:50.653Z,3.85
2016-11-23T07:00:52.124Z,3.85
2016-11-23T07:01:53.631Z,3.85
2016-11-23T07:02:55.094Z,3.85
2016-11-23T07:03:56.613Z,3.85
2016-11-23T07:04:58.076Z,3.89
2016-11-23T07:05:59.548Z,3.93
2016-11-23T07:07:01.051Z,3.98
2016-11-23T07:08:02.517Z,3.98
2016-11-23T07:09:04.018Z,4.02
2016-11-23T07:10:05.482Z,4.02
2016-11-23T07:11:06.950Z,4.02
2016-11-23T07:12:08.420Z,4.02
2016-11-23T07:13:09.882Z,4.06
2016-11-23T07:14:11.457Z,4.06
2016-11-23T07:15:12.944Z,4.06
2016-11-23T07:16:14.419Z,4.06
2016-11-23T07:17:15.860Z,4.1
2016-11-23T07:18:17.324Z,4.14
2016-11-23T07:19:18.852Z,4.22
2016-11-23T07:20:20.315Z,4.31
2016-11-23T07:21:21.781Z,4.31
2016-11-23T07:22:23.248Z,4.31
2016-11-23T07:23:24.706Z,4.31
2016-11-23T07:24:26.211Z,4.31
2016-11-23T07:25:27.701Z,4.31
2016-11-23T07:26:29.190Z,4.35
2016-11-23T07:27:30.668Z,4.35
2016-11-23T07:28:32.191Z,4.35
2016-11-23T07:29:33.670Z,4.39
2016-11-23T07:30:35.132Z,4.39
2016-11-23T07:31:36.599Z,4.39
2016-11-23T07:32:38.062Z,4.39
2016-11-23T07:33:39.533Z,4.47
2016-11-23T07:34:41.018Z,4.56
2016-11-23T07:35:42.511Z,4.72
2016-11-23T07:36:43.979Z,4.84
2016-11-23T07:37:45.438Z,4.93
2016-11-23T07:38:46.963Z,4.97
2016-11-23T07:39:48.455Z,5.01
2016-11-23T07:40:49.926Z,5.05
2016-11-23T07:41:51.465Z,5.05
2016-11-23T07:42:52.932Z,5.09
2016-11-23T07:43:54.400Z,5.13
2016-11-23T07:44:55.871Z,5.13
2016-11-23T07:45:57.346Z,5.17
2016-11-23T07:46:58.810Z,5.13
2016-11-23T07:48:00.323Z,5.13
2016-11-23T07:49:01.789Z,5.09
2016-11-23T07:50:03.331Z,5.05
2016-11-23T07:51:04.799Z,5.05
2016-11-23T07:52:06.354Z,5.09
2016-11-23T07:53:07.813Z,5.09
2016-11-23T07:54:09.280Z,5.09
2016-11-23T07:55:10.779Z,5.05
2016-11-23T07:56:12.243Z,5.05
2016-11-23T07:57:13.720Z,5.05
2016-11-23T07:58:15.204Z,5.05
2016-11-23T07:59:16.719Z,5.05
2016-11-23T08:00:18.223Z,5.01
2016-11-23T08:01:19.715Z,4.97
2016-11-23T08:02:21.206Z,4.97
2016-11-23T08:03:22.670Z,4.97
2016-11-23T08:04:24.136Z,4.93
2016-11-23T08:05:25.665Z,4.97
2016-11-23T08:06:27.132Z,4.97
2016-11-23T08:07:28.617Z,5.05
2016-11-23T08:08:30.074Z,5.09
2016-11-23T08:09:31.570Z,5.13
2016-11-23T08:10:33.052Z,5.21
2016-11-23T08:11:34.521Z,5.29
2016-11-23T08:12:35.996Z,5.33
2016-11-23T08:13:37.491Z,5.37
2016-11-23T08:14:38.956Z,5.37
2016-11-23T08:15:40.496Z,5.37
2016-11-23T08:16:41.978Z,5.37
2016-11-23T08:17:43.485Z,5.33
2016-11-23T08:18:44.960Z,5.29
2016-11-23T08:19:46.421Z,5.29
2016-11-23T08:20:47.910Z,5.33
2016-11-23T08:21:49.380Z,5.37
2016-11-23T08:22:50.853Z,5.46
2016-11-23T08:23:52.381Z,5.5
2016-11-23T08:24:53.891Z,5.58
2016-11-23T08:25:55.383Z,5.58
2016-11-23T08:26:56.854Z,5.62
2016-11-23T08:27:58.317Z,5.62
2016-11-23T08:28:59.786Z,5.66
2016-11-23T08:30:01.304Z,5.7
2016-11-23T08:31:02.774Z,5.7
2016-11-23T08:32:04.273Z,5.7
2016-11-23T08:33:05.769Z,5.74
2016-11-23T08:34:07.292Z,5.74
2016-11-23T08:35:08.765Z,5.74
2016-11-23T08:36:10.254Z,5.78
2016-11-23T08:37:11.731Z,5.86
2016-11-23T08:38:13.211Z,5.94
2016-11-23T08:39:14.680Z,6.02
2016-11-23T08:40:16.164Z,6.1
2016-11-23T08:41:17.652Z,6.18
2016-11-23T08:42:19.121Z,6.26
2016-11-23T08:43:20.638Z,6.34
2016-11-23T08:44:22.120Z,6.42
2016-11-23T08:45:23.616Z,6.46
2016-11-23T08:46:25.087Z,6.54
2016-11-23T08:47:26.559Z,6.58
2016-11-23T08:48:28.038Z,6.62
2016-11-23T08:49:29.497Z,6.66
2016-11-23T08:50:31.037Z,6.7
2016-11-23T08:51:32.524Z,6.74
2016-11-23T08:52:33.992Z,6.78
2016-11-23T08:53:35.457Z,6.78
2016-11-23T08:54:36.983Z,6.82
2016-11-23T08:55:38.440Z,6.9
2016-11-23T08:56:39.933Z,6.98
2016-11-23T08:57:41.404Z,7.06
2016-11-23T08:58:42.872Z,7.17
2016-11-23T08:59:44.342Z,7.25
2016-11-23T09:00:45.831Z,7.37
2016-11-23T09:01:47.355Z,7.49
2016-11-23T09:02:48.826Z,7.57
2016-11-23T09:03:50.302Z,7.64
2016-11-23T09:04:51.802Z,7.76
2016-11-23T09:05:53.318Z,7.88
2016-11-23T09:06:54.777Z,8
2016-11-23T09:07:56.253Z,8.07
2016-11-23T09:08:57.710Z,8.15
2016-11-23T09:09:59.210Z,8.31
2016-11-23T09:11:00.678Z,8.42
2016-11-23T09:12:02.199Z,8.5
2016-11-23T09:13:03.664Z,8.65
2016-11-23T09:14:05.130Z,8.77
2016-11-23T09:15:06.599Z,8.92
2016-11-23T09:16:08.082Z,9.08
2016-11-23T09:17:09.610Z,9.23
2016-11-23T09:18:11.095Z,9.34
2016-11-23T09:19:12.573Z,9.46
2016-11-23T09:20:14.078Z,9.61
2016-11-23T09:21:15.546Z,9.76
2016-11-23T09:22:17.085Z,9.88
2016-11-23T09:23:18.586Z,9.99
2016-11-23T09:24:20.088Z,10.1
2016-11-23T09:25:21.624Z,10.18
2016-11-23T09:26:23.163Z,10.22
2016-11-23T09:27:24.663Z,10.29
2016-11-23T09:28:26.162Z,10.37
2016-11-23T09:29:27.642Z,10.44
2016-11-23T09:30:29.176Z,10.52
2016-11-23T09:31:30.665Z,10.63
2016-11-23T09:32:32.209Z,10.74
2016-11-23T09:33:33.693Z,10.82
2016-11-23T09:34:35.216Z,10.89
2016-11-23T09:35:36.705Z,11.01
2016-11-23T09:36:38.232Z,11.12
2016-11-23T09:37:39.726Z,11.27
2016-11-23T09:38:41.259Z,11.34
2016-11-23T09:39:42.736Z,11.46
2016-11-23T09:40:44.221Z,11.57
2016-11-23T09:41:45.718Z,11.68
2016-11-23T09:42:47.216Z,11.79
2016-11-23T09:43:48.702Z,11.83
2016-11-23T09:44:50.182Z,11.86
2016-11-23T09:45:51.704Z,11.9
2016-11-23T09:46:53.224Z,12.01
2016-11-23T09:47:54.734Z,12.05
2016-11-23T09:48:56.230Z,12.12
2016-11-23T09:49:57.710Z,12.23
2016-11-23T09:50:59.217Z,12.35
2016-11-23T09:52:00.725Z,12.42
2016-11-23T09:53:02.225Z,12.49
2016-11-23T09:54:03.688Z,12.6
2016-11-23T09:55:05.168Z,12.68
2016-11-23T09:56:06.709Z,12.75
2016-11-23T09:57:08.194Z,12.79
2016-11-23T09:58:09.732Z,12.82
2016-11-23T09:59:11.199Z,12.9
2016-11-23T10:00:12.685Z,12.97
2016-11-23T10:01:14.220Z,13.08
2016-11-23T10:02:15.726Z,13.12
2016-11-23T10:03:17.233Z,13.19
2016-11-23T10:04:18.701Z,13.3
2016-11-23T10:05:20.230Z,13.41
2016-11-23T10:06:21.758Z,13.41
2016-11-23T10:07:23.285Z,13.38
2016-11-23T10:08:24.792Z,13.38
2016-11-23T10:09:26.279Z,13.34
2016-11-23T10:10:27.762Z,13.3
2016-11-23T10:11:29.287Z,13.23
2016-11-23T10:12:30.803Z,13.27
2016-11-23T10:13:32.312Z,13.27
2016-11-23T10:14:33.848Z,13.27
2016-11-23T10:15:35.333Z,13.27
2016-11-23T10:16:36.832Z,13.3
2016-11-23T10:17:38.325Z,13.38
2016-11-23T10:18:39.821Z,13.45
2016-11-23T10:19:41.300Z,13.49
2016-11-23T10:20:42.785Z,13.56
2016-11-23T10:21:44.295Z,13.6
2016-11-23T10:22:45.834Z,13.63
2016-11-23T10:23:47.318Z,13.67
2016-11-23T10:24:48.830Z,13.7
2016-11-23T10:25:50.309Z,13.81
2016-11-23T10:26:51.846Z,13.89
2016-11-23T10:27:53.323Z,13.89
2016-11-23T10:28:54.831Z,13.96
2016-11-23T10:29:56.300Z,14
2016-11-23T10:30:57.787Z,14.07
2016-11-23T10:31:59.269Z,14.14
2016-11-23T10:33:00.815Z,14.22
2016-11-23T10:34:02.309Z,14.29
2016-11-23T10:35:03.791Z,14.36
2016-11-23T10:36:05.275Z,14.47
2016-11-23T10:37:06.765Z,14.51
2016-11-23T10:38:08.252Z,14.58
2016-11-23T10:39:09.758Z,14.65
2016-11-23T10:40:11.243Z,14.72
2016-11-23T10:41:12.777Z,14.76
2016-11-23T10:42:14.276Z,14.76
2016-11-23T10:43:15.820Z,14.72
2016-11-23T10:44:17.323Z,14.69
2016-11-23T10:45:18.860Z,14.65
2016-11-23T10:46:20.359Z,14.65
2016-11-23T10:47:21.916Z,14.65
2016-11-23T10:48:23.397Z,14.65
2016-11-23T10:49:24.936Z,14.69
2016-11-23T10:50:26.420Z,14.8
2016-11-23T10:51:27.910Z,14.91
2016-11-23T10:52:29.393Z,14.98
2016-11-23T10:53:30.933Z,15.05
2016-11-23T10:54:32.443Z,15.12
2016-11-23T10:55:33.928Z,15.12
2016-11-23T10:56:35.436Z,15.23
2016-11-23T10:57:36.903Z,15.3
2016-11-23T10:58:38.367Z,15.3
2016-11-23T10:59:39.848Z,15.38
2016-11-23T11:00:41.337Z,15.38
2016-11-23T11:01:42.830Z,15.38
2016-11-23T11:02:44.315Z,15.38
2016-11-23T11:03:45.845Z,15.41
2016-11-23T11:04:47.352Z,15.41
2016-11-23T11:05:48.831Z,15.41
2016-11-23T11:06:50.339Z,15.45
2016-11-23T11:07:51.872Z,15.49
2016-11-23T11:08:53.394Z,15.49
2016-11-23T11:09:54.888Z,15.49
2016-11-23T11:10:56.420Z,15.45
2016-11-23T11:11:57.895Z,15.52
2016-11-23T11:12:59.427Z,15.59
2016-11-23T11:14:00.914Z,15.67
2016-11-23T11:15:02.466Z,15.67
2016-11-23T11:16:03.932Z,15.7
2016-11-23T11:17:05.416Z,15.7
2016-11-23T11:18:06.882Z,15.7
2016-11-23T11:19:08.399Z,15.7
2016-11-23T11:20:09.904Z,15.67
2016-11-23T11:21:11.392Z,15.59
2016-11-23T11:22:12.871Z,15.52
2016-11-23T11:23:14.383Z,15.41
2016-11-23T11:24:15.917Z,15.34
2016-11-23T11:25:17.416Z,15.3
2016-11-23T11:26:18.887Z,15.3
2016-11-23T11:27:20.410Z,15.34
2016-11-23T11:28:21.889Z,15.34
2016-11-23T11:29:23.399Z,15.3
2016-11-23T11:30:24.890Z,15.3
2016-11-23T11:31:26.381Z,15.27
2016-11-23T11:32:27.859Z,15.27
2016-11-23T11:33:29.394Z,15.23
2016-11-23T11:34:30.902Z,15.2
2016-11-23T11:35:32.392Z,15.2
2016-11-23T11:36:33.875Z,15.16
2016-11-23T11:37:35.438Z,15.12
2016-11-23T11:38:36.988Z,15.12
2016-11-23T11:39:38.510Z,15.12
2016-11-23T11:40:40.010Z,15.16
2016-11-23T11:41:41.547Z,15.09
2016-11-23T11:42:43.049Z,15.09
2016-11-23T11:43:44.564Z,15.09
2016-11-23T11:44:46.047Z,15.12
2016-11-23T11:45:47.535Z,15.2
2016-11-23T11:46:49.019Z,15.34
2016-11-23T11:47:50.512Z,15.45
2016-11-23T11:48:51.995Z,15.56
2016-11-23T11:49:53.486Z,15.7
2016-11-23T11:50:54.987Z,15.92
2016-11-23T11:51:56.535Z,16.14
2016-11-23T11:52:58.021Z,16.32
2016-11-23T11:53:59.545Z,16.46
2016-11-23T11:55:01.059Z,16.53
2016-11-23T11:56:02.605Z,16.53
2016-11-23T11:57:04.090Z,16.53
2016-11-23T11:58:05.595Z,16.6
2016-11-23T11:59:07.065Z,16.6
2016-11-23T12:00:08.544Z,16.68
2016-11-23T12:01:10.034Z,16.75
2016-11-23T12:02:11.600Z,16.82
2016-11-23T12:03:13.113Z,16.96
2016-11-23T12:04:14.601Z,17.11
2016-11-23T12:05:16.092Z,17.18
2016-11-23T12:06:17.574Z,17.29
2016-11-23T12:07:19.091Z,17.36
2016-11-23T12:08:20.608Z,17.39
2016-11-23T12:09:22.126Z,17.43
2016-11-23T12:10:23.608Z,17.54
2016-11-23T12:11:25.125Z,17.65
2016-11-23T12:12:26.613Z,17.79
2016-11-23T12:13:28.115Z,18
2016-11-23T12:14:29.598Z,18.26
2016-11-23T12:15:31.095Z,18.51
2016-11-23T12:16:32.606Z,18.87
2016-11-23T12:17:34.142Z,19.37
2016-11-23T12:18:35.628Z,21.09
2016-11-23T12:19:37.146Z,23.39
2016-11-23T12:20:38.633Z,25.14
2016-11-23T12:21:40.159Z,26.79
2016-11-23T12:22:41.640Z,27.35
2016-11-23T12:23:43.171Z,28.14
2016-11-23T12:24:44.655Z,28.44
2016-11-23T12:25:46.180Z,27.61
2016-11-23T12:26:47.689Z,26.17
2016-11-23T12:27:49.224Z,25.07
2016-11-23T12:28:50.733Z,23.79
2016-11-23T12:29:52.197Z,22.6
2016-11-23T12:30:53.701Z,21.66
2016-11-23T12:31:55.225Z,21.09
2016-11-23T12:32:56.717Z,20.62
2016-11-23T12:33:58.201Z,20.55
2016-11-23T12:34:59.731Z,20.37
2016-11-23T12:36:01.265Z,20.12
2016-11-23T12:37:02.762Z,19.98
2016-11-23T12:38:04.291Z,19.87
2016-11-23T12:39:05.778Z,20.01
2016-11-23T12:40:07.307Z,20.01
2016-11-23T12:41:08.814Z,19.94
2016-11-23T12:42:10.335Z,19.69
2016-11-23T12:43:11.816Z,19.55
2016-11-23T12:44:13.341Z,19.44
2016-11-23T12:45:14.895Z,19.55
2016-11-23T12:46:16.401Z,20.08
2016-11-23T12:47:17.897Z,20.37
2016-11-23T12:48:19.371Z,20.33
2016-11-23T12:49:20.857Z,20.33
2016-11-23T12:50:22.342Z,20.51
2016-11-23T12:51:23.877Z,20.66
2016-11-23T12:52:25.421Z,21.23
2016-11-23T12:53:26.928Z,22.06
2016-11-23T12:54:28.413Z,22.17
2016-11-23T12:55:29.907Z,22.2
2016-11-23T12:56:31.397Z,22.6
2016-11-23T12:57:32.897Z,23.25
2016-11-23T12:58:34.384Z,22.42
2016-11-23T12:59:35.867Z,21.48
2016-11-23T13:00:37.383Z,20.62
2016-11-23T13:01:38.903Z,19.87
2016-11-23T13:02:40.398Z,19.44
2016-11-23T13:03:41.922Z,19.15
2016-11-23T13:04:43.455Z,18.76
2016-11-23T13:05:44.970Z,18.36
2016-11-23T13:06:46.475Z,18.15
2016-11-23T13:07:47.971Z,18.04
2016-11-23T13:08:49.492Z,17.93
2016-11-23T13:09:50.979Z,17.79
2016-11-23T13:10:52.462Z,17.68
2016-11-23T13:11:53.960Z,17.65
2016-11-23T13:12:55.522Z,17.61
2016-11-23T13:13:57.005Z,17.54
2016-11-23T13:14:58.489Z,17.47
2016-11-23T13:16:00.031Z,17.29
2016-11-23T13:17:01.514Z,17.22
2016-11-23T13:18:03.072Z,17.07
2016-11-23T13:19:04.591Z,16.96
2016-11-23T13:20:06.080Z,16.86
2016-11-23T13:21:07.558Z,16.71
2016-11-23T13:22:09.073Z,16.64
2016-11-23T13:23:10.565Z,16.57
2016-11-23T13:24:12.082Z,16.6
2016-11-23T13:25:13.562Z,16.46
2016-11-23T13:26:15.072Z,16.32
2016-11-23T13:27:16.551Z,16.21
2016-11-23T13:28:18.063Z,16.1
2016-11-23T13:29:19.597Z,15.99
2016-11-23T13:30:21.120Z,15.96
2016-11-23T13:31:22.599Z,15.96
2016-11-23T13:32:24.084Z,15.92
2016-11-23T13:33:25.586Z,15.88